Time;durP1;ratioP1;P1;durP2;ratioP2;P2;SDS_P1;SDS_P2;PMS_P1;PMS_P2;Temp;Humidity;BMP_temperature;BMP_pressure;BME280_temperature;BME280_humidity;BME280_pressure;Samples;Min_cycle;Max_cycle;Signal;HPM_P1;HPM_P2
2023/05/18 00:01:13;;;;;;;1.08;1.08;;;;;;;13.88;100.00;96379.00;5044371;28;20072;-70
2023/05/18 00:03:40;;;;;;;1.05;1.05;;;;;;;13.90;100.00;96387.72;5044429;28;20052;-70
2023/05/18 00:06:08;;;;;;;1.10;1.10;;;;;;;13.96;100.00;96371.41;5044228;28;20041;-70
2023/05/18 00:08:36;;;;;;;1.20;1.20;;;;;;;14.02;100.00;96380.91;5044220;28;20048;-69
2023/05/18 00:11:05;;;;;;;1.00;1.00;;;;;;;13.57;100.00;96302.88;5043615;28;20060;-70
2023/05/18 00:13:32;;;;;;;1.20;1.20;;;;;;;13.69;100.00;96313.50;5043773;28;20059;-70
2023/05/18 00:15:59;;;;;;;1.20;1.20;;;;;;;14.13;100.00;96381.63;5043770;28;20080;-71
2023/05/18 00:18:26;;;;;;;1.30;1.30;;;;;;;14.20;100.00;96384.31;5043981;28;20057;-69
2023/05/18 00:21:00;;;;;;;1.17;1.17;;;;;;;14.24;100.00;96376.75;5044438;28;20147;-69
2023/05/18 00:23:29;;;;;;;1.10;1.10;;;;;;;14.30;100.00;96375.13;5043835;28;20610;-70
2023/05/18 00:25:58;;;;;;;1.40;1.40;;;;;;;14.25;100.00;96375.56;5043697;28;20132;-70
2023/05/18 00:28:25;;;;;;;1.30;1.30;;;;;;;13.78;100.00;96321.41;5043835;28;20056;-69
2023/05/18 00:30:53;;;;;;;1.10;1.10;;;;;;;14.21;100.00;96374.78;5062568;28;20079;-70
2023/05/18 00:33:19;;;;;;;1.20;1.20;;;;;;;13.70;100.00;96297.59;5084084;28;20129;-69
2023/05/18 00:35:46;;;;;;;1.30;1.30;;;;;;;14.22;100.00;96373.56;5084476;28;20071;-70
2023/05/18 00:38:15;;;;;;;1.20;1.20;;;;;;;14.25;100.00;96378.34;5083877;28;20510;-69
2023/05/18 00:40:43;;;;;;;1.30;1.30;;;;;;;14.32;100.00;96378.31;5075293;28;20425;-70
2023/05/18 00:43:09;;;;;;;1.20;1.20;;;;;;;14.39;100.00;96372.66;5063528;28;20098;-70
2023/05/18 00:45:36;;;;;;;1.20;1.20;;;;;;;14.41;100.00;96381.41;5064411;28;20052;-69
2023/05/18 00:48:03;;;;;;;1.15;1.15;;;;;;;14.31;100.00;96362.78;5063712;28;20052;-69
2023/05/18 00:50:30;;;;;;;1.20;1.20;;;;;;;14.16;100.00;96342.59;5064060;28;20519;-69
2023/05/18 00:52:57;;;;;;;1.20;1.20;;;;;;;14.29;100.00;96351.28;5064082;28;20123;-69
2023/05/18 00:55:26;;;;;;;1.10;1.10;;;;;;;14.36;100.00;96381.84;5063557;28;20076;-70
2023/05/18 00:57:55;;;;;;;1.20;1.20;;;;;;;14.36;100.00;96384.63;5062464;28;20149;-70
2023/05/18 01:00:22;;;;;;;1.17;1.17;;;;;;;14.42;100.00;96388.56;5063386;28;20518;-70
2023/05/18 01:02:49;;;;;;;1.20;1.20;;;;;;;14.50;100.00;96384.50;5063627;28;20109;-70
2023/05/18 01:05:18;;;;;;;1.15;1.15;;;;;;;14.16;100.00;96347.38;5063411;28;20056;-68
2023/05/18 01:07:46;;;;;;;1.15;1.15;;;;;;;14.38;100.00;96393.38;5061966;28;20044;-70
2023/05/18 01:10:16;;;;;;;1.30;1.30;;;;;;;14.43;100.00;96379.00;5063709;28;20084;-70
2023/05/18 01:13:05;;;;;;;1.23;1.23;;;;;;;14.53;100.00;96394.81;5063714;28;20060;-69
2023/05/18 01:15:38;;;;;;;1.20;1.20;;;;;;;13.72;100.00;96394.63;5063694;28;20505;-69
2023/05/18 01:18:24;;;;;;;1.00;1.00;;;;;;;13.33;100.00;96401.16;5062408;28;20045;-70
2023/05/18 01:21:30;;;;;;;1.10;1.10;;;;;;;12.99;100.00;96396.47;5062025;28;20446;-70
2023/05/18 01:24:16;;;;;;;1.00;1.00;;;;;;;12.90;100.00;96402.44;5063989;28;20062;-70
2023/05/18 01:26:45;;;;;;;1.20;1.20;;;;;;;12.81;100.00;96402.09;5082774;28;20384;-69
2023/05/18 01:29:13;;;;;;;1.10;1.10;;;;;;;13.14;100.00;96415.53;5066837;28;20494;-70
2023/05/18 01:31:40;;;;;;;1.10;1.10;;;;;;;13.26;100.00;96400.41;5066969;28;20055;-70
2023/05/18 01:34:06;;;;;;;1.20;1.20;;;;;;;13.40;100.00;96401.13;5065651;28;20053;-69
2023/05/18 01:36:33;;;;;;;1.17;1.17;;;;;;;13.55;100.00;96404.63;5066862;28;20053;-70
2023/05/18 01:39:00;;;;;;;1.10;1.10;;;;;;;13.72;100.00;96405.75;5065142;28;20060;-70
2023/05/18 01:41:29;;;;;;;1.10;1.10;;;;;;;13.85;100.00;96404.09;5081689;28;20059;-70
2023/05/18 01:44:18;;;;;;;1.10;1.10;;;;;;;13.92;100.00;96410.41;5052765;28;21338;-70
2023/05/18 01:46:57;;;;;;;1.00;1.00;;;;;;;14.01;100.00;96407.16;5047142;28;20055;-70
2023/05/18 01:49:35;;;;;;;1.20;1.20;;;;;;;14.10;100.00;96415.84;5047002;28;20063;-70
2023/05/18 01:52:09;;;;;;;1.25;1.25;;;;;;;14.20;100.00;96426.13;5045401;28;20055;-70
2023/05/18 01:54:40;;;;;;;1.35;1.35;;;;;;;14.13;100.00;96426.19;5046702;28;20049;-69
2023/05/18 01:57:08;;;;;;;1.27;1.27;;;;;;;13.77;100.00;96360.78;5045477;28;20052;-69
2023/05/18 01:59:36;;;;;;;1.27;1.27;;;;;;;13.59;100.00;96431.25;5037890;28;20072;-70
2023/05/18 02:02:04;;;;;;;1.10;1.10;;;;;;;13.21;100.00;96432.22;5045310;28;20052;-70
2023/05/18 02:04:31;;;;;;;1.10;1.10;;;;;;;13.42;100.00;96434.91;5046807;28;20057;-70
2023/05/18 02:06:57;;;;;;;1.08;1.08;;;;;;;13.21;100.00;96371.03;5045193;28;20057;-70
2023/05/18 02:09:24;;;;;;;1.00;1.00;;;;;;;13.51;100.00;96429.69;5046282;28;20059;-69
2023/05/18 02:11:51;;;;;;;1.10;1.10;;;;;;;13.32;100.00;96421.84;5045891;28;20598;-70
2023/05/18 02:14:18;;;;;;;1.10;1.10;;;;;;;13.59;100.00;96436.81;5046091;28;20060;-70
2023/05/18 02:16:45;;;;;;;1.10;1.10;;;;;;;13.74;100.00;96447.91;5046025;28;20053;-70
2023/05/18 02:19:16;;;;;;;1.10;1.10;;;;;;;13.90;100.00;96445.41;5046582;28;20077;-69
2023/05/18 02:21:43;;;;;;;1.20;1.20;;;;;;;13.37;100.00;96349.06;5044620;28;20083;-70
2023/05/18 02:24:11;;;;;;;1.27;1.27;;;;;;;14.09;100.00;96442.09;5046140;28;20056;-70
2023/05/18 02:26:38;;;;;;;1.20;1.20;;;;;;;14.18;100.00;96448.03;5045950;28;20049;-70
2023/05/18 02:29:11;;;;;;;1.25;1.25;;;;;;;14.21;100.00;96444.44;5046015;28;20052;-71
2023/05/18 02:31:37;;;;;;;1.20;1.20;;;;;;;14.26;100.00;96452.34;5044511;28;20060;-70
2023/05/18 02:34:05;;;;;;;1.13;1.13;;;;;;;14.31;100.00;96446.34;5046577;28;20484;-70
2023/05/18 02:36:41;;;;;;;1.20;1.20;;;;;;;14.34;100.00;96442.75;5045639;28;20076;-70
2023/05/18 02:39:09;;;;;;;1.40;1.40;;;;;;;14.42;100.00;96442.31;5045887;28;20060;-70
2023/05/18 02:41:36;;;;;;;1.30;1.30;;;;;;;14.49;100.00;96441.47;5045542;28;20067;-70
2023/05/18 02:44:04;;;;;;;1.20;1.20;;;;;;;14.45;100.00;96437.91;5045589;28;20057;-70
2023/05/18 02:46:31;;;;;;;1.20;1.20;;;;;;;14.11;100.00;96376.47;5044345;28;20633;-70
2023/05/18 02:48:58;;;;;;;1.17;1.17;;;;;;;14.62;100.00;96436.97;5044305;28;20053;-70
2023/05/18 02:51:24;;;;;;;1.27;1.27;;;;;;;14.27;100.00;96392.69;5044110;28;20049;-71
2023/05/18 02:53:51;;;;;;;1.30;1.30;;;;;;;14.51;100.00;96427.91;5044569;28;20055;-70
2023/05/18 02:56:18;;;;;;;1.23;1.23;;;;;;;14.61;100.00;96441.75;5044525;28;20428;-70
2023/05/18 02:58:44;;;;;;;1.35;1.35;;;;;;;14.62;100.00;96454.47;5044250;28;20055;-69
2023/05/18 03:01:11;;;;;;;1.30;1.30;;;;;;;14.67;100.00;96453.25;5045373;28;20960;-70
2023/05/18 03:03:40;;;;;;;1.10;1.10;;;;;;;14.66;100.00;96451.66;5045482;28;20049;-70
2023/05/18 03:06:08;;;;;;;1.30;1.30;;;;;;;14.63;100.00;96463.63;5043566;28;20728;-70
2023/05/18 03:08:36;;;;;;;1.33;1.33;;;;;;;14.65;100.00;96458.44;5045434;28;20055;-69
2023/05/18 03:11:03;;;;;;;1.38;1.38;;;;;;;14.63;100.00;96477.56;5045270;28;20049;-71
2023/05/18 03:13:29;;;;;;;1.20;1.20;;;;;;;14.56;100.00;96477.63;5044128;28;20519;-69
2023/05/18 03:15:56;;;;;;;1.30;1.30;;;;;;;14.60;100.00;96481.19;5045098;28;20941;-70
2023/05/18 03:18:24;;;;;;;1.10;1.10;;;;;;;14.28;100.00;96449.97;5045226;28;20435;-70
2023/05/18 03:20:51;;;;;;;1.10;1.10;;;;;;;14.50;100.00;96504.34;5045275;28;20056;-70
2023/05/18 03:23:19;;;;;;;1.30;1.30;;;;;;;14.15;100.00;96446.03;5045030;28;20060;-70
2023/05/18 03:25:45;;;;;;;1.23;1.23;;;;;;;14.51;100.00;96494.81;5028933;28;20140;-71
2023/05/18 03:28:12;;;;;;;1.30;1.30;;;;;;;14.53;100.00;96506.31;5025571;28;20152;-69
2023/05/18 03:30:39;;;;;;;1.20;1.20;;;;;;;14.52;100.00;96496.38;5024020;28;20223;-69
2023/05/18 03:33:06;;;;;;;1.20;1.20;;;;;;;14.52;100.00;96504.75;5023903;28;20535;-69
2023/05/18 03:35:32;;;;;;;1.20;1.20;;;;;;;14.58;100.00;96497.53;5025033;28;20053;-69
2023/05/18 03:37:59;;;;;;;1.13;1.13;;;;;;;14.17;100.00;96435.28;5024883;28;20542;-68
2023/05/18 03:40:26;;;;;;;1.20;1.20;;;;;;;14.62;100.00;96504.66;5029871;28;20476;-69
2023/05/18 03:42:53;;;;;;;1.20;1.20;;;;;;;14.62;100.00;96501.88;5045072;28;20052;-68
2023/05/18 03:45:19;;;;;;;1.20;1.20;;;;;;;14.37;100.00;96462.25;5044573;28;20060;-71
2023/05/18 03:47:46;;;;;;;1.30;1.30;;;;;;;14.63;100.00;96511.03;5043537;28;20048;-69
2023/05/18 03:50:13;;;;;;;1.30;1.30;;;;;;;14.64;100.00;96515.38;5044705;28;20063;-70
2023/05/18 03:52:43;;;;;;;1.10;1.10;;;;;;;14.66;100.00;96511.00;5042666;28;20101;-70
2023/05/18 03:55:10;;;;;;;1.30;1.30;;;;;;;14.77;100.00;96522.06;5043071;28;20048;-70
2023/05/18 03:57:37;;;;;;;1.30;1.30;;;;;;;14.73;100.00;96533.25;5042674;28;20084;-70
2023/05/18 04:00:10;;;;;;;1.40;1.40;;;;;;;14.90;100.00;96525.94;5043395;28;20063;-71
2023/05/18 04:02:38;;;;;;;1.30;1.30;;;;;;;14.58;100.00;96458.50;5043963;28;20459;-70
2023/05/18 04:05:07;;;;;;;1.20;1.20;;;;;;;14.76;100.00;96487.03;5042917;28;20312;-71
2023/05/18 04:07:42;;;;;;;1.20;1.20;;;;;;;15.09;100.00;96528.94;5044389;28;20052;-69
2023/05/18 04:10:10;;;;;;;1.25;1.25;;;;;;;14.12;100.00;96371.66;5024650;28;20495;-70
2023/05/18 04:12:38;;;;;;;1.30;1.30;;;;;;;15.24;100.00;96534.44;5023857;28;20512;-69
2023/05/18 04:15:05;;;;;;;1.30;1.30;;;;;;;15.25;100.00;96530.44;5024310;28;20459;-69
2023/05/18 04:17:32;;;;;;;1.20;1.20;;;;;;;13.56;100.00;96245.63;5024268;28;20049;-70
2023/05/18 04:20:02;;;;;;;1.25;1.25;;;;;;;15.49;100.00;96541.38;5024412;28;20045;-70
2023/05/18 04:22:30;;;;;;;1.40;1.40;;;;;;;15.49;100.00;96544.16;5024319;28;20049;-71
2023/05/18 04:24:56;;;;;;;1.20;1.20;;;;;;;15.10;100.00;96508.25;5022554;28;20060;-70
2023/05/18 04:27:23;;;;;;;1.40;1.40;;;;;;;15.47;100.00;96540.22;5022593;28;20516;-69
2023/05/18 04:29:50;;;;;;;1.42;1.42;;;;;;;15.46;100.00;96542.19;5022598;28;20061;-71
2023/05/18 04:32:17;;;;;;;1.20;1.20;;;;;;;15.41;100.00;96539.88;5022635;28;20082;-69
2023/05/18 04:34:48;;;;;;;1.20;1.20;;;;;;;15.38;100.00;96543.47;5024506;28;20050;-70
2023/05/18 04:37:16;;;;;;;1.50;1.50;;;;;;;15.52;100.00;96546.16;5022376;28;20046;-70
2023/05/18 04:39:43;;;;;;;1.33;1.33;;;;;;;15.66;100.00;96537.63;5024299;28;20057;-70
2023/05/18 04:42:13;;;;;;;1.30;1.30;;;;;;;15.82;100.00;96543.38;5039774;28;20053;-70
2023/05/18 04:44:40;;;;;;;1.48;1.48;;;;;;;15.85;100.00;96542.59;5043642;28;20059;-68
2023/05/18 04:47:07;;;;;;;1.25;1.25;;;;;;;15.74;100.00;96535.53;5043039;28;20530;-72
2023/05/18 04:49:34;;;;;;;1.23;1.23;;;;;;;16.01;100.00;96548.34;5041251;28;20053;-70
2023/05/18 04:52:00;;;;;;;1.30;1.30;;;;;;;16.18;100.00;96549.34;5042610;28;20097;-74
2023/05/18 04:54:31;;;;;;;1.23;1.23;;;;;;;16.27;98.97;96547.63;5043167;28;20143;-71
2023/05/18 04:56:58;;;;;;;1.40;1.40;;;;;;;16.39;97.95;96555.44;5043034;28;20164;-72
2023/05/18 04:59:25;;;;;;;1.40;1.40;;;;;;;16.54;96.94;96554.09;5047012;28;20045;-73
2023/05/18 05:01:52;;;;;;;1.30;1.30;;;;;;;14.37;96.70;96182.84;5047379;28;20056;-73
2023/05/18 05:04:22;;;;;;;1.30;1.30;;;;;;;16.67;95.11;96547.91;5047225;28;20053;-72
2023/05/18 05:06:49;;;;;;;1.40;1.40;;;;;;;17.13;95.55;96553.59;5047249;28;20519;-73
2023/05/18 05:09:16;;;;;;;1.40;1.40;;;;;;;17.39;92.48;96555.53;5047762;28;20049;-71
2023/05/18 05:11:42;;;;;;;1.58;1.58;;;;;;;17.71;91.33;96555.78;5045754;28;20053;-73
2023/05/18 05:14:09;;;;;;;1.73;1.73;;;;;;;17.80;88.68;96519.56;5047510;28;20427;-71
2023/05/18 05:16:36;;;;;;;1.58;1.58;;;;;;;15.98;84.92;96222.34;5047834;28;20499;-74
2023/05/18 05:19:02;;;;;;;1.40;1.40;;;;;;;18.16;84.90;96556.91;5046180;28;20114;-75
2023/05/18 05:21:30;;;;;;;1.58;1.58;;;;;;;17.90;85.14;96529.78;5047036;28;20045;-70
2023/05/18 05:23:57;;;;;;;1.60;1.60;;;;;;;17.64;87.82;96567.13;5047046;28;20048;-73
2023/05/18 05:26:24;;;;;;;1.50;1.50;;;;;;;17.11;91.19;96556.00;5045599;28;20057;-74
2023/05/18 05:28:51;;;;;;;1.40;1.40;;;;;;;16.83;92.02;96576.84;5046804;28;20553;-74
2023/05/18 05:31:18;;;;;;;1.27;1.27;;;;;;;16.04;98.23;96567.09;5046925;28;20531;-73
2023/05/18 05:33:44;;;;;;;1.35;1.35;;;;;;;16.44;98.24;96574.59;5045566;28;20049;-74
2023/05/18 05:36:11;;;;;;;1.50;1.50;;;;;;;16.35;98.08;96518.38;5045561;28;20053;-74
2023/05/18 05:38:38;;;;;;;1.30;1.30;;;;;;;16.67;97.05;96576.69;5045110;28;20136;-72
2023/05/18 05:41:05;;;;;;;1.50;1.50;;;;;;;14.43;98.87;96363.06;5035168;28;20057;-67
2023/05/18 05:43:31;;;;;;;1.35;1.35;;;;;;;16.16;99.11;96563.75;5041282;28;20090;-73
2023/05/18 05:45:58;;;;;;;1.30;1.30;;;;;;;15.74;100.00;96591.38;5040695;28;20597;-72
2023/05/18 05:48:25;;;;;;;1.48;1.48;;;;;;;15.83;100.00;96556.16;5040977;28;20419;-74
2023/05/18 05:50:52;;;;;;;1.40;1.40;;;;;;;16.64;97.72;96589.47;5045874;28;20045;-73
2023/05/18 05:53:19;;;;;;;1.35;1.35;;;;;;;16.54;95.18;96539.31;5043767;28;20122;-70
2023/05/18 05:55:46;;;;;;;1.50;1.50;;;;;;;15.99;98.37;96592.69;5044795;28;20060;-65
2023/05/18 05:58:13;;;;;;;1.40;1.40;;;;;;;16.29;98.30;96525.66;5043436;28;20228;-62
2023/05/18 06:00:39;;;;;;;1.38;1.38;;;;;;;17.10;92.69;96590.81;5044556;28;20045;-67
2023/05/18 06:03:06;;;;;;;1.50;1.50;;;;;;;15.97;95.55;96499.31;5042829;28;20050;-71
2023/05/18 06:05:33;;;;;;;1.40;1.40;;;;;;;15.92;99.30;96592.78;5040776;28;20057;-61
2023/05/18 06:08:00;;;;;;;1.30;1.30;;;;;;;15.33;100.00;96555.06;5037744;28;20512;-59
2023/05/18 06:10:27;;;;;;;1.30;1.30;;;;;;;16.18;100.00;96603.25;5033933;28;20499;-60
2023/05/18 06:12:54;;;;;;;1.30;1.30;;;;;;;16.67;100.00;96603.84;5046423;28;20055;-68
2023/05/18 06:15:20;;;;;;;1.33;1.33;;;;;;;16.42;98.71;96604.94;5044952;28;20049;-61
2023/05/18 06:17:47;;;;;;;1.50;1.50;;;;;;;15.62;100.00;96496.97;5044818;28;20049;-62
2023/05/18 06:20:14;;;;;;;1.30;1.30;;;;;;;15.75;100.00;96610.50;5043532;28;20045;-71
2023/05/18 06:22:41;;;;;;;1.20;1.20;;;;;;;15.64;100.00;96598.66;5043002;28;20145;-59
2023/05/18 06:25:09;;;;;;;1.40;1.40;;;;;;;16.25;100.00;96614.34;5042843;28;20053;-55
2023/05/18 06:27:36;;;;;;;1.50;1.50;;;;;;;15.86;100.00;96621.56;5042012;28;20139;-70
2023/05/18 06:30:04;;;;;;;1.27;1.27;;;;;;;15.81;100.00;96577.31;5044595;28;20059;-64
2023/05/18 06:32:31;;;;;;;1.35;1.35;;;;;;;15.91;100.00;96596.78;5040892;28;20056;-61
2023/05/18 06:34:57;;;;;;;1.40;1.40;;;;;;;15.74;100.00;96636.88;5045334;28;20500;-64
2023/05/18 06:37:24;;;;;;;1.35;1.35;;;;;;;15.83;99.10;96627.97;5043390;28;20052;-72
2023/05/18 06:39:51;;;;;;;1.42;1.42;;;;;;;16.42;96.51;96626.53;5044784;28;20120;-59
2023/05/18 06:42:18;;;;;;;1.50;1.50;;;;;;;17.10;93.40;96616.81;5042396;28;20160;-55
2023/05/18 06:44:44;;;;;;;1.50;1.50;;;;;;;17.20;90.92;96547.88;5039636;28;20041;-58
2023/05/18 06:47:11;;;;;;;1.60;1.60;;;;;;;18.05;86.61;96598.38;5043123;28;20135;-59
2023/05/18 06:49:38;;;;;;;1.80;1.80;;;;;;;17.16;83.63;96564.72;5043539;28;20160;-57
2023/05/18 06:52:05;;;;;;;1.63;1.63;;;;;;;16.83;86.03;96648.78;5045201;28;20049;-72
2023/05/18 06:54:32;;;;;;;1.70;1.70;;;;;;;17.17;85.96;96643.88;5041891;28;20048;-56
2023/05/18 06:56:59;;;;;;;1.70;1.70;;;;;;;17.45;86.96;96671.50;5041181;28;20056;-64
2023/05/18 06:59:25;;;;;;;1.60;1.60;;;;;;;18.30;84.92;96646.34;5039932;28;20099;-70
2023/05/18 07:01:52;;;;;;;1.75;1.75;;;;;;;18.60;80.05;96651.78;5040692;28;20041;-60
2023/05/18 07:04:19;;;;;;;1.70;1.70;;;;;;;19.22;79.09;96648.78;5041828;28;20057;-58
2023/05/18 07:06:46;;;;;;;1.55;1.55;;;;;;;19.40;73.61;96663.25;4781327;28;5001908;-58
2023/05/18 07:09:13;;;;;;;1.83;1.83;;;;;;;19.00;73.64;96580.31;5071911;28;20515;-59
2023/05/18 07:11:39;;;;;;;1.80;1.80;;;;;;;19.45;72.97;96668.34;5074707;28;20052;-58
2023/05/18 07:14:06;;;;;;;1.75;1.75;;;;;;;19.28;73.90;96661.09;5078562;28;20059;-58
2023/05/18 07:16:34;;;;;;;1.70;1.70;;;;;;;19.21;74.37;96646.41;5064716;28;20051;-57
2023/05/18 07:19:02;;;;;;;1.98;1.98;;;;;;;19.40;74.50;96642.78;5080977;28;20052;-56
2023/05/18 07:21:30;;;;;;;1.67;1.67;;;;;;;19.55;73.15;96672.91;5077378;28;20400;-57
2023/05/18 07:23:56;;;;;;;2.05;2.05;;;;;;;19.72;70.86;96672.91;5085153;28;20090;-58
2023/05/18 07:26:23;;;;;;;1.65;1.65;;;;;;;19.28;74.04;96677.19;5082412;28;20051;-57
2023/05/18 07:28:50;;;;;;;1.98;1.98;;;;;;;19.21;74.92;96630.38;5066777;28;20149;-72
2023/05/18 07:31:19;;;;;;;2.00;2.00;;;;;;;19.73;72.95;96683.72;5077366;28;20127;-56
2023/05/18 07:33:47;;;;;;;1.83;1.83;;;;;;;19.69;73.51;96687.84;5080479;28;20052;-69
2023/05/18 07:36:14;;;;;;;1.80;1.80;;;;;;;18.09;72.60;96604.69;5083885;28;20052;-56
2023/05/18 07:38:40;;;;;;;2.03;2.03;;;;;;;18.24;72.79;96690.09;5084542;28;20461;-58
2023/05/18 07:41:07;;;;;;;1.55;1.55;;;;;;;18.44;73.21;96690.97;5064432;28;20060;-56
2023/05/18 07:43:34;;;;;;;1.80;1.80;;;;;;;18.08;71.46;96695.63;5072464;28;20048;-68
2023/05/18 07:46:01;;;;;;;1.58;1.58;;;;;;;17.57;73.67;96696.09;5076317;28;20048;-57
2023/05/18 07:48:28;;;;;;;1.60;1.60;;;;;;;17.89;72.99;96707.56;5072480;28;20067;-68
2023/05/18 07:50:55;;;;;;;1.60;1.60;;;;;;;17.42;74.02;96698.28;5075568;28;20044;-56
2023/05/18 07:53:22;;;;;;;1.42;1.42;;;;;;;17.34;72.07;96704.44;5072631;28;20502;-55
2023/05/18 07:55:48;;;;;;;1.50;1.50;;;;;;;17.90;68.61;96703.53;5080021;28;20511;-57
2023/05/18 07:58:15;;;;;;;1.60;1.60;;;;;;;17.30;66.39;96619.69;5082579;28;20052;-57
2023/05/18 08:00:43;;;;;;;1.40;1.40;;;;;;;17.67;66.71;96672.72;5082864;28;20058;-62
2023/05/18 08:03:09;;;;;;;1.50;1.50;;;;;;;17.87;65.58;96715.59;5079939;28;20075;-68
2023/05/18 08:05:36;;;;;;;1.42;1.42;;;;;;;17.81;68.24;96717.31;5072504;28;20064;-56
2023/05/18 08:08:03;;;;;;;1.40;1.40;;;;;;;18.20;67.48;96722.22;5071527;28;20537;-59
2023/05/18 08:10:32;;;;;;;1.65;1.65;;;;;;;18.25;66.25;96660.06;5082711;28;20156;-58
2023/05/18 08:12:59;;;;;;;1.70;1.70;;;;;;;18.55;63.00;96724.41;5073910;28;20049;-62
2023/05/18 08:15:26;;;;;;;1.60;1.60;;;;;;;18.74;63.55;96734.88;5053137;28;20052;-72
2023/05/18 08:17:53;;;;;;;1.60;1.60;;;;;;;18.41;64.08;96739.50;5080873;28;20059;-68
2023/05/18 08:20:20;;;;;;;1.75;1.75;;;;;;;18.06;63.21;96644.81;5079933;28;20044;-58
2023/05/18 08:22:47;;;;;;;1.80;1.80;;;;;;;17.51;62.21;96485.75;5072717;28;20072;-57
2023/05/18 08:25:14;;;;;;;1.65;1.65;;;;;;;19.02;63.37;96777.19;5062441;28;20079;-57
2023/05/18 08:27:41;;;;;;;1.80;1.80;;;;;;;18.41;63.77;96750.72;5076515;28;20066;-58
2023/05/18 08:30:08;;;;;;;1.50;1.50;;;;;;;18.56;63.18;96757.66;5065411;28;20049;-58
2023/05/18 08:32:36;;;;;;;1.70;1.70;;;;;;;16.71;65.80;96632.56;5069386;28;20043;-58
2023/05/18 08:35:04;;;;;;;1.80;1.80;;;;;;;17.13;67.46;96676.72;5083887;28;20170;-71
2023/05/18 08:37:31;;;;;;;1.70;1.70;;;;;;;16.84;64.75;96681.94;5084436;28;20044;-61
2023/05/18 08:39:58;;;;;;;1.35;1.35;;;;;;;17.16;65.59;96765.47;5084386;28;20052;-74
2023/05/18 08:42:51;;;;;;;1.67;1.67;;;;;;;16.71;66.81;96654.94;5078008;28;20094;-66
2023/05/18 08:45:35;;;;;;;1.58;1.58;;;;;;;16.93;67.30;96740.19;5065856;28;20378;-64
2023/05/18 08:48:02;;;;;;;1.40;1.40;;;;;;;17.19;68.40;96773.81;5069838;28;20052;-56
2023/05/18 08:50:31;;;;;;;1.42;1.42;;;;;;;17.21;67.66;96770.59;5088127;28;20071;-57
2023/05/18 08:53:04;;;;;;;1.45;1.45;;;;;;;17.55;65.57;96782.53;5074760;28;20052;-73
2023/05/18 08:55:35;;;;;;;1.30;1.30;;;;;;;16.68;65.14;96734.09;5084733;28;20109;-58
2023/05/18 08:58:06;;;;;;;1.35;1.35;;;;;;;17.53;63.85;96785.00;5084291;28;20167;-58
2023/05/18 09:00:33;;;;;;;1.40;1.40;;;;;;;16.54;65.56;96724.66;5084659;28;20063;-76
2023/05/18 09:03:04;;;;;;;1.50;1.50;;;;;;;17.19;65.59;96792.63;5084113;28;20048;-74
2023/05/18 09:05:30;;;;;;;1.45;1.45;;;;;;;17.25;66.08;96774.13;5082997;28;20063;-58
2023/05/18 09:07:59;;;;;;;1.70;1.70;;;;;;;17.27;67.51;96771.72;5083918;28;20099;-76
2023/05/18 09:10:26;;;;;;;1.38;1.38;;;;;;;16.97;66.01;96813.69;5082449;28;20418;-59
2023/05/18 09:12:54;;;;;;;1.20;1.20;;;;;;;16.29;65.59;96740.88;5084570;28;20067;-76
2023/05/18 09:15:23;;;;;;;1.55;1.55;;;;;;;17.01;67.61;96814.44;5083915;28;20055;-58
2023/05/18 09:17:51;;;;;;;1.23;1.23;;;;;;;17.00;67.67;96824.03;5078660;28;20490;-58
2023/05/18 09:20:18;;;;;;;1.50;1.50;;;;;;;16.14;68.41;96811.28;5063814;28;20131;-74
2023/05/18 09:22:48;;;;;;;1.50;1.50;;;;;;;16.38;69.45;96827.03;5070793;28;20047;-58
2023/05/18 09:25:16;;;;;;;1.10;1.10;;;;;;;14.12;69.34;96514.50;5084167;28;20043;-73
2023/05/18 09:27:43;;;;;;;1.60;1.60;;;;;;;16.34;69.41;96832.66;5083504;28;20054;-57
2023/05/18 09:30:10;;;;;;;1.30;1.30;;;;;;;15.95;71.31;96804.25;5083523;28;20052;-73
2023/05/18 09:32:37;;;;;;;1.30;1.30;;;;;;;15.89;73.24;96805.09;5083832;28;20060;-76
2023/05/18 09:35:06;;;;;;;1.58;1.58;;;;;;;16.02;75.08;96820.97;5084231;28;20572;-57
2023/05/18 09:37:33;;;;;;;1.70;1.70;;;;;;;15.81;74.32;96703.81;5083895;28;20052;-60
2023/05/18 09:40:06;;;;;;;1.40;1.40;;;;;;;16.33;75.41;96817.09;5083919;28;20060;-59
2023/05/18 09:42:38;;;;;;;1.50;1.50;;;;;;;16.50;73.33;96818.97;5080876;28;20049;-58
2023/05/18 09:45:22;;;;;;;1.40;1.40;;;;;;;16.58;73.88;96802.94;5064296;28;20628;-72
2023/05/18 09:47:50;;;;;;;1.50;1.50;;;;;;;16.38;73.00;96816.66;5074269;28;20052;-74
2023/05/18 09:50:23;;;;;;;1.77;1.77;;;;;;;16.80;75.67;96823.06;5087753;28;20121;-58
2023/05/18 09:52:50;;;;;;;1.42;1.42;;;;;;;16.22;70.51;96594.81;5087555;28;20138;-58
2023/05/18 09:55:18;;;;;;;1.50;1.50;;;;;;;17.03;69.82;96784.81;5087436;28;20044;-72
2023/05/18 09:57:47;;;;;;;1.50;1.50;;;;;;;17.57;68.68;96822.13;5087247;28;20052;-58
2023/05/18 10:00:16;;;;;;;1.60;1.60;;;;;;;17.50;67.67;96825.81;5087343;28;20051;-71
2023/05/18 10:02:49;;;;;;;1.58;1.58;;;;;;;17.02;67.88;96799.22;5087434;28;20430;-74
2023/05/18 10:05:23;;;;;;;1.50;1.50;;;;;;;17.01;70.62;96831.22;5087664;28;20056;-74
2023/05/18 10:07:50;;;;;;;1.50;1.50;;;;;;;17.23;71.21;96815.78;5086646;28;20048;-57
2023/05/18 10:10:19;;;;;;;1.40;1.40;;;;;;;16.59;69.64;96780.13;5087297;28;20075;-71
2023/05/18 10:12:46;;;;;;;1.77;1.77;;;;;;;16.26;70.78;96760.47;5086948;28;20546;-58
2023/05/18 10:15:14;;;;;;;1.75;1.75;;;;;;;17.14;69.88;96837.84;5084875;28;20048;-59
2023/05/18 10:17:43;;;;;;;1.63;1.63;;;;;;;16.97;69.85;96797.69;5083385;28;20131;-58
2023/05/18 10:20:16;;;;;;;1.40;1.40;;;;;;;16.78;71.00;96829.09;5085616;28;20058;-57
2023/05/18 10:22:45;;;;;;;1.40;1.40;;;;;;;16.15;75.31;96752.22;5086406;28;20484;-58
2023/05/18 10:25:21;;;;;;;1.40;1.40;;;;;;;16.56;77.27;96834.09;5086021;28;20044;-57
2023/05/18 10:27:50;;;;;;;1.40;1.40;;;;;;;16.73;78.96;96848.31;5086293;28;20438;-60
2023/05/18 10:30:17;;;;;;;1.40;1.40;;;;;;;16.76;76.67;96837.09;5085101;28;20533;-59
2023/05/18 10:32:44;;;;;;;1.50;1.50;;;;;;;16.88;78.40;96835.78;5086307;28;20050;-59
2023/05/18 10:35:12;;;;;;;1.60;1.60;;;;;;;16.64;73.66;96841.19;5086785;28;20497;-58
2023/05/18 10:37:42;;;;;;;1.40;1.40;;;;;;;16.40;74.97;96842.22;5081269;28;20060;-57
2023/05/18 10:40:11;;;;;;;1.58;1.58;;;;;;;16.69;80.95;96836.38;5073803;28;20044;-76
2023/05/18 10:42:40;;;;;;;1.48;1.48;;;;;;;17.13;76.77;96839.06;5068565;28;20047;-63
2023/05/18 10:45:09;;;;;;;1.33;1.33;;;;;;;17.11;77.81;96830.28;5086117;28;20059;-56
2023/05/18 10:47:38;;;;;;;1.45;1.45;;;;;;;17.41;76.81;96856.31;5080154;28;20059;-67
2023/05/18 10:50:07;;;;;;;1.50;1.50;;;;;;;17.01;76.77;96808.84;5062362;28;20127;-75
2023/05/18 10:52:36;;;;;;;1.50;1.50;;;;;;;17.33;77.16;96859.63;5082464;28;20048;-73
2023/05/18 10:55:03;;;;;;;1.58;1.58;;;;;;;17.23;77.66;96866.16;5066891;28;20052;-63
2023/05/18 10:57:38;;;;;;;1.83;1.83;;;;;;;17.15;78.01;96867.44;5075330;28;20044;-58
2023/05/18 11:00:08;;;;;;;1.55;1.55;;;;;;;17.04;80.53;96875.19;5064446;28;20578;-67
2023/05/18 11:02:41;;;;;;;1.40;1.40;;;;;;;16.40;82.74;96814.25;5066296;28;20426;-59
2023/05/18 11:05:09;;;;;;;1.52;1.52;;;;;;;16.07;85.26;96784.22;5068777;28;20062;-60
2023/05/18 11:07:36;;;;;;;1.42;1.42;;;;;;;16.13;89.65;96844.03;5082216;28;20535;-71
2023/05/18 11:10:08;;;;;;;1.50;1.50;;;;;;;16.34;91.48;96893.38;5079710;28;20049;-72
2023/05/18 11:12:37;;;;;;;1.48;1.48;;;;;;;16.25;92.10;96891.03;5072029;28;20075;-68
2023/05/18 11:15:05;;;;;;;1.45;1.45;;;;;;;15.69;93.44;96818.81;5082627;28;20046;-58
2023/05/18 11:17:32;;;;;;;1.40;1.40;;;;;;;15.43;94.32;96861.22;5072108;28;20044;-58
2023/05/18 11:20:07;;;;;;;1.30;1.30;;;;;;;15.54;94.36;96884.31;5075633;28;20588;-67
2023/05/18 11:22:50;;;;;;;1.30;1.30;;;;;;;15.33;92.54;96856.50;5080764;28;20526;-72
2023/05/18 11:25:22;;;;;;;1.60;1.60;;;;;;;15.72;93.58;96885.03;5066947;28;20048;-70
2023/05/18 11:27:51;;;;;;;1.43;1.43;;;;;;;15.40;88.46;96875.19;5080634;28;20059;-56
2023/05/18 11:30:33;;;;;;;1.45;1.45;;;;;;;15.62;90.49;96874.69;5063712;28;20060;-56
2023/05/18 11:33:11;;;;;;;1.42;1.42;;;;;;;16.11;91.73;96879.16;5076080;28;20052;-68
2023/05/18 11:36:10;;;;;;;1.48;1.48;;;;;;;16.02;84.04;96804.22;5075716;28;20384;-67